Time;durP1;ratioP1;P1;durP2;ratioP2;P2;SDS_P1;SDS_P2;PMS_P1;PMS_P2;Temp;Humidity;BMP_temperature;BMP_pressure;BME280_temperature;BME280_humidity;BME280_pressure;Samples;Min_cycle;Max_cycle;Signal;HPM_P1;HPM_P2
2022/06/28 00:01:38;;;;;;;;;;;13.00;99.90;;;;;;5124680;27;19927;-75
2022/06/28 00:04:03;;;;;;;;;;;12.90;99.90;;;;;;5116047;27;20006;-75
2022/06/28 00:06:29;;;;;;;;;;;13.00;99.90;;;;;;5132157;27;19926;-76
2022/06/28 00:08:54;;;;;;;;;;;12.90;99.90;;;;;;5133041;27;19926;-76
2022/06/28 00:11:20;;;;;;;;;;;13.00;99.90;;;;;;5114750;27;20297;-76
2022/06/28 00:13:45;;;;;;;;;;;13.10;99.90;;;;;;5112398;28;19920;-75
2022/06/28 00:16:15;;;;;;;;;;;12.90;99.90;;;;;;5113628;27;20006;-76
2022/06/28 00:18:41;;;;;;;;;;;12.90;99.90;;;;;;5104127;27;19923;-76
2022/06/28 00:21:07;;;;;;;;;;;12.80;99.90;;;;;;5130334;27;19931;-76
2022/06/28 00:23:33;;;;;;;;;;;12.80;99.90;;;;;;5111183;28;20330;-76
2022/06/28 00:25:59;;;;;;;;;;;12.70;99.90;;;;;;5112008;28;19924;-76
2022/06/28 00:28:25;;;;;;;;;;;12.90;99.90;;;;;;5118872;27;19923;-76
2022/06/28 00:30:50;;;;;;;;;;;12.60;99.90;;;;;;5132516;27;19923;-76
2022/06/28 00:33:16;;;;;;;;;;;12.80;99.90;;;;;;5132705;27;19959;-76
2022/06/28 00:35:41;;;;;;;;;;;12.70;99.90;;;;;;5120491;27;19924;-76
2022/06/28 00:38:07;;;;;;;;;;;12.70;99.90;;;;;;5111354;28;20482;-75
2022/06/28 00:40:33;;;;;;;;;;;12.60;99.90;;;;;;5104644;27;19968;-75
2022/06/28 00:42:58;;;;;;;;;;;12.60;99.90;;;;;;5129874;27;19927;-76
2022/06/28 00:45:25;;;;;;;;;;;12.70;99.90;;;;;;5111544;28;19928;-76
2022/06/28 00:47:51;;;;;;;;;;;12.60;99.90;;;;;;5084263;28;19919;-76
2022/06/28 00:50:17;;;;;;;;;;;12.60;99.90;;;;;;5111419;28;20014;-76
2022/06/28 00:52:59;;;;;;;;;;;12.60;99.90;;;;;;5110784;28;19978;-76
2022/06/28 00:55:25;;;;;;;;;;;12.40;99.90;;;;;;5102867;27;20281;-76
2022/06/28 00:57:50;;;;;;;;;;;12.60;99.90;;;;;;5132033;27;19926;-76
2022/06/28 01:00:16;;;;;;;;;;;12.50;99.90;;;;;;5132033;27;19990;-76
2022/06/28 01:02:42;;;;;;;;;;;12.30;99.90;;;;;;5131699;27;19919;-76
2022/06/28 01:05:07;;;;;;;;;;;12.50;99.90;;;;;;5108090;28;19920;-76
2022/06/28 01:07:33;;;;;;;;;;;12.50;99.90;;;;;;5122122;27;19973;-76
2022/06/28 01:09:59;;;;;;;;;;;12.50;99.90;;;;;;5114687;28;19926;-76
2022/06/28 01:12:25;;;;;;;;;;;12.50;99.90;;;;;;5112067;28;19924;-76
2022/06/28 01:14:50;;;;;;;;;;;12.50;99.90;;;;;;5111738;28;19923;-76
2022/06/28 01:17:16;;;;;;;;;;;12.70;99.90;;;;;;5111910;28;19920;-76
2022/06/28 01:19:41;;;;;;;;;;;12.80;99.90;;;;;;5111628;28;19923;-76
2022/06/28 01:22:09;;;;;;;;;;;12.40;99.90;;;;;;5101297;28;20395;-76
2022/06/28 01:24:35;;;;;;;;;;;12.70;99.90;;;;;;5118493;28;19919;-76
2022/06/28 01:27:01;;;;;;;;;;;12.40;99.90;;;;;;5115533;28;19919;-76
2022/06/28 01:29:27;;;;;;;;;;;12.40;99.90;;;;;;5120521;28;19998;-76
2022/06/28 01:31:53;;;;;;;;;;;12.30;99.90;;;;;;5114647;28;19920;-76
2022/06/28 01:34:19;;;;;;;;;;;12.30;99.90;;;;;;5131847;28;19930;-76
2022/06/28 01:36:44;;;;;;;;;;;12.40;99.90;;;;;;5120804;28;19976;-76
2022/06/28 01:39:10;;;;;;;;;;;12.20;99.90;;;;;;5121101;28;19928;-76
2022/06/28 01:41:36;;;;;;;;;;;12.30;99.90;;;;;;5129251;28;19920;-76
2022/06/28 01:44:06;;;;;;;;;;;12.30;99.90;;;;;;5094681;28;19920;-76
2022/06/28 01:46:34;;;;;;;;;;;12.30;99.90;;;;;;5124624;28;19927;-75
2022/06/28 01:48:59;;;;;;;;;;;12.30;99.90;;;;;;5110317;28;19921;-75
2022/06/28 01:51:25;;;;;;;;;;;12.20;99.90;;;;;;5113978;28;20285;-75
2022/06/28 01:53:51;;;;;;;;;;;12.20;99.90;;;;;;5124748;27;19962;-75
2022/06/28 01:56:16;;;;;;;;;;;12.20;99.90;;;;;;5135357;27;19920;-76
2022/06/28 01:58:42;;;;;;;;;;;12.20;99.90;;;;;;5114883;28;19926;-76
2022/06/28 02:01:07;;;;;;;;;;;12.30;99.90;;;;;;5114987;28;19924;-76
2022/06/28 02:03:33;;;;;;;;;;;12.10;99.90;;;;;;5114906;28;19926;-76
2022/06/28 02:05:59;;;;;;;;;;;12.10;99.90;;;;;;5115193;28;20056;-75
2022/06/28 02:08:25;;;;;;;;;;;12.10;99.90;;;;;;5114695;28;19963;-76
2022/06/28 02:10:50;;;;;;;;;;;12.00;99.90;;;;;;5097927;28;20404;-75
2022/06/28 02:13:16;;;;;;;;;;;12.00;99.90;;;;;;5114965;28;20438;-76
2022/06/28 02:15:42;;;;;;;;;;;12.00;99.90;;;;;;5111306;27;19943;-76
2022/06/28 02:18:07;;;;;;;;;;;12.00;99.90;;;;;;5108269;28;19920;-75
2022/06/28 02:20:33;;;;;;;;;;;12.00;99.90;;;;;;5101109;28;19924;-76
2022/06/28 02:22:59;;;;;;;;;;;12.00;99.90;;;;;;5114116;28;19923;-75
2022/06/28 02:25:24;;;;;;;;;;;12.00;99.90;;;;;;5114665;28;19976;-75
2022/06/28 02:27:51;;;;;;;;;;;11.90;99.90;;;;;;5114192;28;19927;-75
2022/06/28 02:30:17;;;;;;;;;;;12.10;99.90;;;;;;5132013;27;19962;-75
2022/06/28 02:32:43;;;;;;;;;;;11.90;99.90;;;;;;5134598;27;19964;-75
2022/06/28 02:40:37;;;;;;;;;;;12.20;99.90;;;;;;5113952;28;19924;-76
2022/06/28 02:43:02;;;;;;;;;;;11.80;99.90;;;;;;5114317;28;19920;-76
2022/06/28 02:45:29;;;;;;;;;;;12.00;99.90;;;;;;5117016;27;20060;-76
2022/06/28 02:47:55;;;;;;;;;;;11.80;99.90;;;;;;5132364;27;19919;-76
2022/06/28 02:50:21;;;;;;;;;;;11.80;99.90;;;;;;5109860;28;19919;-76
2022/06/28 02:52:46;;;;;;;;;;;11.90;99.90;;;;;;5125728;27;19930;-76
2022/06/28 02:55:12;;;;;;;;;;;11.80;99.90;;;;;;5137566;27;19923;-76
2022/06/28 02:57:38;;;;;;;;;;;12.20;99.90;;;;;;5143476;27;19920;-76
2022/06/28 03:00:07;;;;;;;;;;;11.90;99.90;;;;;;5141955;27;19970;-76
2022/06/28 03:02:37;;;;;;;;;;;11.80;99.90;;;;;;5126552;27;20369;-76
2022/06/28 03:05:06;;;;;;;;;;;11.80;99.90;;;;;;5116094;28;20258;-76
2022/06/28 03:07:32;;;;;;;;;;;11.80;99.90;;;;;;5097073;28;19920;-76
2022/06/28 03:09:58;;;;;;;;;;;11.80;99.90;;;;;;5114603;28;19964;-76
2022/06/28 03:12:23;;;;;;;;;;;11.90;99.90;;;;;;5124180;27;19927;-77
2022/06/28 03:14:49;;;;;;;;;;;12.00;99.90;;;;;;5132795;27;20328;-77
2022/06/28 03:17:14;;;;;;;;;;;11.80;99.90;;;;;;5122683;27;19934;-77
2022/06/28 03:19:40;;;;;;;;;;;11.80;99.90;;;;;;5134451;27;19923;-77
2022/06/28 03:22:06;;;;;;;;;;;11.90;99.90;;;;;;5097832;28;20429;-77
2022/06/28 03:24:31;;;;;;;;;;;11.70;99.90;;;;;;5114449;28;19920;-77
2022/06/28 03:26:57;;;;;;;;;;;11.80;99.90;;;;;;5118167;27;20411;-77
2022/06/28 03:29:22;;;;;;;;;;;11.80;99.90;;;;;;5116499;27;19973;-77
2022/06/28 03:31:49;;;;;;;;;;;11.90;99.90;;;;;;5134188;27;19945;-77
2022/06/28 03:34:15;;;;;;;;;;;11.90;99.90;;;;;;5134487;27;19927;-77
2022/06/28 03:36:40;;;;;;;;;;;11.90;99.90;;;;;;5114167;27;20347;-77
2022/06/28 03:39:06;;;;;;;;;;;12.00;99.90;;;;;;5113260;28;19923;-77
2022/06/28 03:41:32;;;;;;;;;;;12.00;99.90;;;;;;5113539;28;19920;-76
2022/06/28 03:43:57;;;;;;;;;;;12.10;99.90;;;;;;5095880;28;19968;-77
2022/06/28 03:46:23;;;;;;;;;;;12.00;99.90;;;;;;5126071;27;19928;-77
2022/06/28 03:48:48;;;;;;;;;;;12.20;99.90;;;;;;5123503;27;20361;-76
2022/06/28 03:51:14;;;;;;;;;;;12.20;99.90;;;;;;5096811;27;19919;-77
2022/06/28 03:53:40;;;;;;;;;;;12.20;99.90;;;;;;5112239;28;20270;-77
2022/06/28 03:56:06;;;;;;;;;;;12.20;99.90;;;;;;5115347;27;19934;-77
2022/06/28 03:58:31;;;;;;;;;;;12.30;99.90;;;;;;5133718;27;19930;-77
2022/06/28 04:00:57;;;;;;;;;;;12.30;99.90;;;;;;5100639;28;19924;-75
2022/06/28 04:03:23;;;;;;;;;;;12.40;99.90;;;;;;5096127;28;20318;-77
2022/06/28 04:05:48;;;;;;;;;;;12.40;99.90;;;;;;5112627;28;20411;-75
2022/06/28 04:08:14;;;;;;;;;;;12.60;99.90;;;;;;5113059;27;19920;-77
2022/06/28 04:10:39;;;;;;;;;;;12.60;99.90;;;;;;5112555;28;19992;-77
2022/06/28 04:13:05;;;;;;;;;;;12.60;99.90;;;;;;5130182;27;20006;-77
2022/06/28 04:15:31;;;;;;;;;;;12.50;99.90;;;;;;5126020;27;19943;-75
2022/06/28 04:17:57;;;;;;;;;;;12.50;99.90;;;;;;5107842;28;19924;-75
2022/06/28 04:20:22;;;;;;;;;;;12.40;99.90;;;;;;5095699;28;20269;-76
2022/06/28 04:22:49;;;;;;;;;;;12.30;99.90;;;;;;5124405;27;20005;-76
2022/06/28 04:25:15;;;;;;;;;;;12.50;99.90;;;;;;5127498;27;19920;-75
2022/06/28 04:27:40;;;;;;;;;;;12.30;99.90;;;;;;5112034;28;19927;-76
2022/06/28 04:30:06;;;;;;;;;;;12.30;99.90;;;;;;5095382;28;19920;-76
2022/06/28 04:32:32;;;;;;;;;;;12.30;99.90;;;;;;5095825;28;20285;-76
2022/06/28 04:34:57;;;;;;;;;;;12.30;99.90;;;;;;5095856;28;20296;-76
2022/06/28 04:37:23;;;;;;;;;;;12.40;99.90;;;;;;5094899;28;19927;-76
2022/06/28 04:39:49;;;;;;;;;;;12.40;99.90;;;;;;5125905;27;20296;-76
2022/06/28 04:42:14;;;;;;;;;;;12.40;99.90;;;;;;5116326;27;20017;-76
2022/06/28 04:44:41;;;;;;;;;;;12.40;99.90;;;;;;5130774;27;19923;-76
2022/06/28 04:47:08;;;;;;;;;;;12.40;99.90;;;;;;5132269;27;19919;-76
2022/06/28 04:49:33;;;;;;;;;;;12.50;99.90;;;;;;5112354;27;19984;-75
2022/06/28 04:51:59;;;;;;;;;;;12.60;99.90;;;;;;5119888;27;19924;-76
2022/06/28 04:54:25;;;;;;;;;;;12.70;99.90;;;;;;5117401;27;20010;-76
2022/06/28 04:56:52;;;;;;;;;;;12.70;99.90;;;;;;5111729;28;19970;-76
2022/06/28 04:59:17;;;;;;;;;;;12.90;99.90;;;;;;5111679;28;20367;-76
2022/06/28 05:01:43;;;;;;;;;;;13.00;99.90;;;;;;5111592;28;19923;-76
2022/06/28 05:04:09;;;;;;;;;;;13.00;99.90;;;;;;5122983;27;19924;-76
2022/06/28 05:06:34;;;;;;;;;;;13.00;99.90;;;;;;5102334;27;19930;-76
2022/06/28 05:09:00;;;;;;;;;;;13.40;99.90;;;;;;5112287;28;19924;-76
2022/06/28 05:11:25;;;;;;;;;;;13.20;99.90;;;;;;5103173;28;19908;-76
2022/06/28 05:13:51;;;;;;;;;;;13.20;99.90;;;;;;5132033;28;19923;-76
2022/06/28 05:16:17;;;;;;;;;;;13.10;99.90;;;;;;5128579;27;19926;-76
2022/06/28 05:18:42;;;;;;;;;;;13.30;99.90;;;;;;5138556;27;19924;-76
2022/06/28 05:21:08;;;;;;;;;;;13.40;99.90;;;;;;5119703;28;20078;-76
2022/06/28 05:23:33;;;;;;;;;;;13.40;99.90;;;;;;5114515;28;19931;-76
2022/06/28 05:25:59;;;;;;;;;;;13.50;99.90;;;;;;5106556;28;20027;-76
2022/06/28 05:28:25;;;;;;;;;;;13.60;99.90;;;;;;5133909;28;20329;-76
2022/06/28 05:30:51;;;;;;;;;;;13.60;99.90;;;;;;5122577;28;20300;-76
2022/06/28 05:33:16;;;;;;;;;;;13.70;99.90;;;;;;5126915;28;19919;-76
2022/06/28 05:35:42;;;;;;;;;;;13.80;99.90;;;;;;5112858;28;19931;-76
2022/06/28 05:38:07;;;;;;;;;;;13.90;99.90;;;;;;5121394;28;19919;-76
2022/06/28 05:40:33;;;;;;;;;;;13.80;99.90;;;;;;5099940;28;20288;-76
2022/06/28 05:42:59;;;;;;;;;;;14.00;99.90;;;;;;5097762;28;19927;-76
2022/06/28 05:45:25;;;;;;;;;;;14.20;99.90;;;;;;5081532;28;20388;-76
2022/06/28 05:47:50;;;;;;;;;;;14.10;99.90;;;;;;5104446;28;19980;-76
2022/06/28 05:50:16;;;;;;;;;;;14.30;99.90;;;;;;5110096;28;20423;-76
2022/06/28 05:52:42;;;;;;;;;;;14.10;99.90;;;;;;5116847;28;19990;-76
2022/06/28 05:55:07;;;;;;;;;;;14.20;99.90;;;;;;5110949;28;19920;-76
2022/06/28 05:57:33;;;;;;;;;;;14.30;99.90;;;;;;5111394;28;19924;-76
2022/06/28 05:59:59;;;;;;;;;;;14.30;99.90;;;;;;5111148;28;19932;-76
2022/06/28 06:02:24;;;;;;;;;;;14.40;99.90;;;;;;5111609;28;19966;-76
2022/06/28 06:04:50;;;;;;;;;;;14.50;99.90;;;;;;5111044;28;19926;-76
2022/06/28 06:07:16;;;;;;;;;;;14.60;99.90;;;;;;5110518;28;19963;-76
2022/06/28 06:09:42;;;;;;;;;;;14.60;99.90;;;;;;5113273;28;19966;-76
2022/06/28 06:12:08;;;;;;;;;;;14.70;99.90;;;;;;5122911;28;19920;-76
2022/06/28 06:14:34;;;;;;;;;;;14.70;99.90;;;;;;5111405;28;20372;-76
2022/06/28 06:17:00;;;;;;;;;;;14.80;99.90;;;;;;5100899;28;19920;-76
2022/06/28 06:19:25;;;;;;;;;;;14.80;99.90;;;;;;5123320;28;20401;-76
2022/06/28 06:21:51;;;;;;;;;;;14.90;99.90;;;;;;5130718;28;19919;-76
2022/06/28 06:24:17;;;;;;;;;;;14.90;99.90;;;;;;5114527;28;20327;-76
2022/06/28 06:26:43;;;;;;;;;;;15.00;99.90;;;;;;5096856;28;19919;-76
2022/06/28 06:29:09;;;;;;;;;;;15.10;99.90;;;;;;5111167;28;20498;-76
2022/06/28 06:31:35;;;;;;;;;;;15.10;99.90;;;;;;5111118;28;20018;-76
2022/06/28 06:34:00;;;;;;;;;;;15.30;99.90;;;;;;5121123;28;19971;-76
2022/06/28 06:36:26;;;;;;;;;;;15.30;99.90;;;;;;5128544;27;20488;-76
2022/06/28 06:38:52;;;;;;;;;;;15.50;99.90;;;;;;5114263;28;19919;-76
2022/06/28 06:41:18;;;;;;;;;;;15.60;99.90;;;;;;5114570;28;20309;-76
2022/06/28 06:43:53;;;;;;;;;;;15.70;99.90;;;;;;5093665;28;19920;-76
2022/06/28 06:46:19;;;;;;;;;;;15.80;99.90;;;;;;5109857;28;20005;-76
2022/06/28 06:48:45;;;;;;;;;;;15.90;99.90;;;;;;5112509;28;20395;-76
2022/06/28 06:51:10;;;;;;;;;;;16.00;99.90;;;;;;5115267;27;19947;-77
2022/06/28 06:53:36;;;;;;;;;;;16.10;99.90;;;;;;5109800;28;20021;-76
2022/06/28 06:56:02;;;;;;;;;;;16.10;99.90;;;;;;5096763;28;19923;-76
2022/06/28 06:58:27;;;;;;;;;;;16.20;99.90;;;;;;5117649;27;19947;-76
2022/06/28 07:00:57;;;;;;;;;;;16.30;99.90;;;;;;5121074;27;19928;-76
2022/06/28 07:03:23;;;;;;;;;;;16.40;99.90;;;;;;5113974;28;19924;-76
2022/06/28 07:05:49;;;;;;;;;;;16.50;99.90;;;;;;5103038;28;19973;-76
2022/06/28 07:08:14;;;;;;;;;;;16.60;99.90;;;;;;5112722;28;19931;-75
2022/06/28 07:10:40;;;;;;;;;;;16.70;99.90;;;;;;5096994;28;19951;-76
2022/06/28 07:13:05;;;;;;;;;;;16.80;99.90;;;;;;5113668;28;19931;-76
2022/06/28 07:15:31;;;;;;;;;;;16.90;99.90;;;;;;5115113;27;19999;-76
2022/06/28 07:17:57;;;;;;;;;;;17.10;99.90;;;;;;5113369;28;20272;-75
2022/06/28 07:20:22;;;;;;;;;;;17.30;99.90;;;;;;5096670;28;20344;-76
2022/06/28 07:22:48;;;;;;;;;;;17.60;99.90;;;;;;5112998;28;19924;-76
2022/06/28 07:25:13;;;;;;;;;;;17.60;99.90;;;;;;5113237;28;19959;-76
2022/06/28 07:27:39;;;;;;;;;;;17.30;99.90;;;;;;5113697;28;19955;-76
2022/06/28 07:30:05;;;;;;;;;;;17.30;99.90;;;;;;5113619;28;19973;-76
2022/06/28 07:32:31;;;;;;;;;;;17.80;99.90;;;;;;5129689;28;19927;-75
2022/06/28 07:34:57;;;;;;;;;;;;;;;;;;5152538;27;19919;-76
2022/06/28 07:37:23;;;;;;;;;;;18.30;99.90;;;;;;5139729;27;19908;-76
2022/06/28 07:39:48;;;;;;;;;;;18.10;99.90;;;;;;5137246;27;20429;-76
2022/06/28 07:42:14;;;;;;;;;;;18.60;99.90;;;;;;5138301;27;19972;-76
2022/06/28 07:44:39;;;;;;;;;;;18.70;99.90;;;;;;5121731;27;19942;-75
2022/06/28 07:47:05;;;;;;;;;;;18.80;99.90;;;;;;5122505;27;19971;-75
2022/06/28 07:54:59;;;;;;;;;;;19.20;99.90;;;;;;5114637;27;19928;-76
2022/06/28 07:57:25;;;;;;;;;;;19.20;99.90;;;;;;5113874;28;20381;-76
2022/06/28 07:59:50;;;;;;;;;;;19.20;99.90;;;;;;5118870;27;19972;-75
2022/06/28 08:02:16;;;;;;;;;;;19.20;99.90;;;;;;5122337;27;19920;-75
2022/06/28 08:04:43;;;;;;;;;;;19.20;99.90;;;;;;5096042;28;20131;-75
2022/06/28 08:07:09;;;;;;;;;;;19.30;99.90;;;;;;5113485;27;19919;-75
2022/06/28 08:09:35;;;;;;;;;;;19.30;99.90;;;;;;5113300;28;19920;-75
2022/06/28 08:12:00;;;;;;;;;;;19.30;99.90;;;;;;5112737;28;19919;-76
2022/06/28 08:14:27;;;;;;;;;;;19.10;99.90;;;;;;5113507;28;19919;-76
2022/06/28 08:16:52;;;;;;;;;;;18.90;99.90;;;;;;5112913;28;19924;-76
2022/06/28 08:19:19;;;;;;;;;;;18.80;99.90;;;;;;5112739;28;19947;-76
2022/06/28 08:21:45;;;;;;;;;;;18.70;99.90;;;;;;5095080;28;19928;-76
2022/06/28 08:24:11;;;;;;;;;;;18.80;99.90;;;;;;5112583;28;19980;-76
2022/06/28 08:26:42;;;;;;;;;;;18.90;99.90;;;;;;5095861;28;19919;-76
2022/06/28 08:29:17;;;;;;;;;;;19.00;99.90;;;;;;5112417;28;19968;-76
2022/06/28 08:31:43;;;;;;;;;;;19.10;99.90;;;;;;5100708;27;19926;-76
2022/06/28 08:34:09;;;;;;;;;;;19.10;99.90;;;;;;5133864;27;19950;-76
2022/06/28 08:36:35;;;;;;;;;;;19.30;99.90;;;;;;5115510;27;20261;-76
2022/06/28 08:39:00;;;;;;;;;;;19.60;99.90;;;;;;5132828;27;19926;-75
2022/06/28 08:41:28;;;;;;;;;;;19.80;99.90;;;;;;5116822;27;19920;-76
2022/06/28 08:43:54;;;;;;;;;;;19.90;99.90;;;;;;5112238;28;19971;-76
2022/06/28 08:46:20;;;;;;;;;;;20.00;99.90;;;;;;5125760;27;19923;-76
2022/06/28 08:48:50;;;;;;;;;;;20.00;99.90;;;;;;5110193;28;19959;-76
2022/06/28 08:51:17;;;;;;;;;;;19.80;99.90;;;;;;5111408;28;19920;-75
2022/06/28 08:53:44;;;;;;;;;;;19.70;99.90;;;;;;5118472;27;20352;-76
2022/06/28 08:56:10;;;;;;;;;;;19.60;99.90;;;;;;5132163;27;19919;-76
2022/06/28 08:58:36;;;;;;;;;;;19.60;99.90;;;;;;5095597;28;19972;-76
2022/06/28 09:01:02;;;;;;;;;;;19.70;99.90;;;;;;5110345;28;19935;-76
2022/06/28 09:03:28;;;;;;;;;;;19.80;99.90;;;;;;5111335;28;19919;-76
2022/06/28 09:05:54;;;;;;;;;;;20.00;99.90;;;;;;5111175;28;20380;-76
2022/06/28 09:08:20;;;;;;;;;;;19.80;99.90;;;;;;5110775;28;20014;-76
2022/06/28 09:10:45;;;;;;;;;;;19.70;99.90;;;;;;5094905;28;19969;-76
2022/06/28 09:13:13;;;;;;;;;;;19.70;99.90;;;;;;5113766;27;20676;-76
2022/06/28 09:15:44;;;;;;;;;;;19.70;99.90;;;;;;5122927;27;20292;-76
2022/06/28 09:18:10;;;;;;;;;;;19.70;99.90;;;;;;5111590;28;20340;-76
2022/06/28 09:20:37;;;;;;;;;;;19.80;99.90;;;;;;5111758;28;19928;-76
2022/06/28 09:23:03;;;;;;;;;;;20.00;99.90;;;;;;5124718;27;19976;-76
2022/06/28 09:25:30;;;;;;;;;;;20.00;99.90;;;;;;5099301;28;20299;-75
2022/06/28 09:27:57;;;;;;;;;;;20.00;99.90;;;;;;5119021;28;20272;-75
2022/06/28 09:30:24;;;;;;;;;;;20.10;99.90;;;;;;5135871;28;19942;-75
2022/06/28 09:32:50;;;;;;;;;;;19.90;99.90;;;;;;5118960;28;19962;-76
2022/06/28 09:35:15;;;;;;;;;;;19.70;99.90;;;;;;5112676;28;20429;-76
2022/06/28 09:37:48;;;;;;;;;;;19.60;99.90;;;;;;5112551;28;19923;-76
2022/06/28 09:40:21;;;;;;;;;;;19.70;99.90;;;;;;5112437;28;19924;-76
2022/06/28 09:43:07;;;;;;;;;;;19.70;99.90;;;;;;5112613;28;19920;-75
2022/06/28 09:45:33;;;;;;;;;;;19.70;99.90;;;;;;5112428;28;19920;-75
2022/06/28 09:47:59;;;;;;;;;;;19.70;99.90;;;;;;5112088;28;20275;-75
2022/06/28 09:50:24;;;;;;;;;;;19.80;99.90;;;;;;5110944;28;19973;-75
2022/06/28 09:52:51;;;;;;;;;;;19.70;99.90;;;;;;5111232;28;19919;-76
2022/06/28 09:55:17;;;;;;;;;;;19.60;99.90;;;;;;5107651;28;19980;-75
2022/06/28 09:57:45;;;;;;;;;;;19.50;99.90;;;;;;5111686;28;20356;-75
2022/06/28 10:00:11;;;;;;;;;;;19.40;99.90;;;;;;5130317;28;20296;-75
2022/06/28 10:02:37;;;;;;;;;;;19.40;99.90;;;;;;5119144;28;19919;-75
2022/06/28 10:05:03;;;;;;;;;;;19.40;99.90;;;;;;5100711;28;19920;-75
2022/06/28 10:07:32;;;;;;;;;;;19.70;99.90;;;;;;5119351;28;19927;-76
2022/06/28 10:09:58;;;;;;;;;;;20.00;99.90;;;;;;5113043;28;19919;-75
2022/06/28 10:15:08;;;;;;;;;;;20.50;99.90;;;;;;5114475;28;19919;-75
2022/06/28 10:17:34;;;;;;;;;;;20.90;99.90;;;;;;5127190;27;19927;-75
2022/06/28 10:20:01;;;;;;;;;;;20.90;99.90;;;;;;5131625;27;19923;-75
2022/06/28 10:22:26;;;;;;;;;;;20.80;99.90;;;;;;5113960;28;19946;-76
2022/06/28 10:24:53;;;;;;;;;;;20.90;99.90;;;;;;5097847;28;20250;-75
2022/06/28 10:27:19;;;;;;;;;;;21.00;99.90;;;;;;5122171;27;19927;-75
2022/06/28 10:29:57;;;;;;;;;;;21.20;99.90;;;;;;5134302;27;19977;-75
2022/06/28 10:32:42;;;;;;;;;;;21.40;99.90;;;;;;5113903;28;19920;-75
2022/06/28 10:35:07;;;;;;;;;;;21.50;99.90;;;;;;5116840;27;19980;-75
2022/06/28 10:37:33;;;;;;;;;;;21.70;99.90;;;;;;5135540;27;19919;-75
2022/06/28 10:40:17;;;;;;;;;;;21.80;99.90;;;;;;5133341;27;19997;-75
2022/06/28 10:42:50;;;;;;;;;;;21.90;99.90;;;;;;5114729;28;19924;-75
2022/06/28 10:45:16;;;;;;;;;;;22.20;99.90;;;;;;5132728;27;20370;-76
2022/06/28 10:48:17;;;;;;;;;;;22.20;99.90;;;;;;5117938;27;19989;-76
2022/06/28 10:50:59;;;;;;;;;;;22.00;99.90;;;;;;5050753;28;19999;-76
2022/06/28 10:53:26;;;;;;;;;;;21.80;99.90;;;;;;5118541;27;19924;-76
2022/06/28 10:56:10;;;;;;;;;;;21.90;99.90;;;;;;5114244;28;19920;-76
2022/06/28 10:58:54;;;;;;;;;;;22.10;99.90;;;;;;5105434;27;19926;-76
2022/06/28 11:01:20;;;;;;;;;;;;;;;;;;5116853;27;20372;-76
2022/06/28 11:03:46;;;;;;;;;;;;;;;;;;5125916;27;19920;-77
2022/06/28 11:06:12;;;;;;;;;;;;;;;;;;5114846;27;20339;-76
2022/06/28 11:08:38;;;;;;;;;;;;;;;;;;5116939;27;20032;-77
2022/06/28 11:11:04;;;;;;;;;;;;;;;;;;5120615;27;19951;-76
2022/06/28 11:13:30;;;;;;;;;;;;;;;;;;5113612;28;19920;-77
2022/06/28 11:15:56;;;;;;;;;;;;;;;;;;5110698;28;20286;-76
2022/06/28 11:18:26;;;;;;;;;;;;;;;;;;5116573;27;20405;-77
2022/06/28 11:20:52;;;;;;;;;;;;;;;;;;5122665;27;19928;-77
2022/06/28 11:23:18;;;;;;;;;;;;;;;;;;5128110;27;19923;-76
2022/06/28 11:28:28;;;;;;;;;;;22.60;99.90;;;;;;5114050;27;20029;-77
2022/06/28 11:30:54;;;;;;;;;;;22.40;99.90;;;;;;5113692;28;20080;-77
2022/06/28 11:33:19;;;;;;;;;;;22.20;99.90;;;;;;5095996;28;19930;-76
2022/06/28 11:35:45;;;;;;;;;;;22.20;99.90;;;;;;5113882;28;19924;-76
2022/06/28 11:38:12;;;;;;;;;;;22.30;99.90;;;;;;5109521;27;20436;-77
2022/06/28 11:40:45;;;;;;;;;;;22.50;99.90;;;;;;5096855;28;19976;-76
2022/06/28 11:43:12;;;;;;;;;;;22.60;99.90;;;;;;5128495;27;19963;-76
2022/06/28 11:45:39;;;;;;;;;;;21.50;99.90;;;;;;5124641;27;19930;-76
2022/06/28 11:48:06;;;;;;;;;;;21.80;99.90;;;;;;5113061;28;19928;-77
2022/06/28 11:50:40;;;;;;;;;;;21.80;99.90;;;;;;5112456;28;19930;-76
2022/06/28 11:53:05;;;;;;;;;;;22.30;99.90;;;;;;5112368;28;19923;-77
2022/06/28 11:55:37;;;;;;;;;;;22.80;99.90;;;;;;5109588;28;19927;-77
2022/06/28 11:58:10;;;;;;;;;;;23.30;99.90;;;;;;5127633;27;20025;-78
2022/06/28 12:00:35;;;;;;;;;;;23.60;99.90;;;;;;5095459;28;19924;-77
2022/06/28 12:03:03;;;;;;;;;;;23.70;99.90;;;;;;5130218;27;20004;-77
2022/06/28 12:05:30;;;;;;;;;;;23.60;99.90;;;;;;5116129;27;19924;-77
2022/06/28 12:07:56;;;;;;;;;;;23.50;99.90;;;;;;5117572;27;20383;-77
2022/06/28 12:10:23;;;;;;;;;;;23.10;99.90;;;;;;5113692;28;19920;-77
2022/06/28 12:12:48;;;;;;;;;;;22.70;99.90;;;;;;5096021;28;19924;-77
2022/06/28 12:15:14;;;;;;;;;;;22.70;99.90;;;;;;5112906;28;19920;-77
2022/06/28 12:17:44;;;;;;;;;;;22.90;99.90;;;;;;5113182;28;19955;-77
2022/06/28 12:20:10;;;;;;;;;;;23.40;99.90;;;;;;5100852;27;20376;-77
2022/06/28 12:22:35;;;;;;;;;;;23.90;99.90;;;;;;5121067;27;19969;-76
2022/06/28 12:25:07;;;;;;;;;;;24.30;99.90;;;;;;5115038;28;20399;-78
2022/06/28 12:27:34;;;;;;;;;;;24.60;99.90;;;;;;5126582;28;19910;-78
2022/06/28 12:30:00;;;;;;;;;;;24.90;99.90;;;;;;5113095;28;19978;-78
2022/06/28 12:32:26;;;;;;;;;;;24.90;99.90;;;;;;5112034;28;20357;-78
2022/06/28 12:35:05;;;;;;;;;;;24.90;99.90;;;;;;5126085;27;19923;-78
2022/06/28 12:37:31;;;;;;;;;;;24.70;99.90;;;;;;5114036;28;19920;-77
2022/06/28 12:40:00;;;;;;;;;;;24.60;99.90;;;;;;5114556;28;19924;-78
2022/06/28 12:42:32;;;;;;;;;;;24.80;99.90;;;;;;5113956;28;20265;-78
2022/06/28 12:45:00;;;;;;;;;;;24.90;99.90;;;;;;5112431;28;20052;-77
2022/06/28 12:47:27;;;;;;;;;;;25.10;99.90;;;;;;5114036;28;19942;-76
2022/06/28 12:49:52;;;;;;;;;;;25.40;99.90;;;;;;5094703;28;19919;-77
2022/06/28 12:52:18;;;;;;;;;;;25.30;99.90;;;;;;5106778;27;19926;-77
2022/06/28 12:54:43;;;;;;;;;;;25.20;99.90;;;;;;5130418;27;19927;-77
2022/06/28 12:57:09;;;;;;;;;;;25.20;99.90;;;;;;5123327;27;19926;-78
2022/06/28 12:59:35;;;;;;;;;;;25.20;99.90;;;;;;5130348;27;19924;-77
2022/06/28 13:02:00;;;;;;;;;;;25.20;99.30;;;;;;5096060;28;19923;-79
2022/06/28 13:04:26;;;;;;;;;;;25.00;99.90;;;;;;5095467;28;19924;-78
2022/06/28 13:06:51;;;;;;;;;;;25.00;99.90;;;;;;5132640;27;20292;-77
2022/06/28 13:09:17;;;;;;;;;;;25.20;99.90;;;;;;5119087;27;20384;-77
2022/06/28 13:11:43;;;;;;;;;;;25.80;98.70;;;;;;5112215;28;19931;-77
2022/06/28 13:14:08;;;;;;;;;;;26.40;85.70;;;;;;5112595;28;20001;-78
2022/06/28 13:16:34;;;;;;;;;;;27.00;87.60;;;;;;5101989;28;19920;-78
2022/06/28 13:19:00;;;;;;;;;;;27.60;99.90;;;;;;5112416;28;19930;-77
2022/06/28 13:21:26;;;;;;;;;;;27.80;99.90;;;;;;5093997;28;19990;-77
2022/06/28 13:23:51;;;;;;;;;;;27.90;67.90;;;;;;5105841;28;19926;-77
2022/06/28 13:26:17;;;;;;;;;;;27.70;99.90;;;;;;5118086;27;19927;-77
2022/06/28 13:28:43;;;;;;;;;;;27.30;97.40;;;;;;5117237;28;19946;-77
2022/06/28 13:31:09;;;;;;;;;;;26.60;86.40;;;;;;5131815;28;19930;-78
2022/06/28 13:33:35;;;;;;;;;;;26.10;83.40;;;;;;5111801;28;19963;-78
2022/06/28 13:36:01;;;;;;;;;;;26.20;97.80;;;;;;5112285;28;20261;-78
2022/06/28 13:38:26;;;;;;;;;;;26.50;88.10;;;;;;5093775;28;19945;-77
2022/06/28 13:40:55;;;;;;;;;;;27.00;86.80;;;;;;5095230;28;20005;-78
2022/06/28 13:43:34;;;;;;;;;;;27.50;89.50;;;;;;5094917;28;19926;-78
2022/06/28 13:45:59;;;;;;;;;;;27.30;80.30;;;;;;5112378;28;19933;-79
2022/06/28 13:48:25;;;;;;;;;;;26.50;70.10;;;;;;5098573;28;19923;-78
2022/06/28 13:50:51;;;;;;;;;;;26.00;92.40;;;;;;5113802;27;19994;-76
2022/06/28 13:53:16;;;;;;;;;;;25.50;83.30;;;;;;5156113;27;19922;-75
2022/06/28 13:55:43;;;;;;;;;;;25.30;75.70;;;;;;5149071;27;19908;-78
2022/06/28 13:58:10;;;;;;;;;;;25.80;93.50;;;;;;5114245;28;19924;-77
2022/06/28 14:00:35;;;;;;;;;;;26.50;82.10;;;;;;5122757;28;19923;-77
2022/06/28 14:03:01;;;;;;;;;;;27.00;93.50;;;;;;5120676;28;19927;-78
2022/06/28 14:05:27;;;;;;;;;;;27.20;76.30;;;;;;5122667;27;19919;-78
2022/06/28 14:07:53;;;;;;;;;;;26.80;72.20;;;;;;5117384;28;20067;-78
2022/06/28 14:10:18;;;;;;;;;;;26.10;75.40;;;;;;5120132;27;19930;-78
2022/06/28 14:12:44;;;;;;;;;;;25.50;69.60;;;;;;5137578;27;19926;-78
2022/06/28 14:15:10;;;;;;;;;;;25.10;71.40;;;;;;5121268;27;19924;-79
2022/06/28 14:17:35;;;;;;;;;;;24.80;74.70;;;;;;5122224;27;19926;-78
2022/06/28 14:20:01;;;;;;;;;;;25.20;82.20;;;;;;5122943;27;19923;-78
2022/06/28 14:22:27;;;;;;;;;;;25.90;79.50;;;;;;5119862;27;19923;-77
2022/06/28 14:24:53;;;;;;;;;;;26.00;79.80;;;;;;5134006;27;19923;-78
2022/06/28 14:27:20;;;;;;;;;;;25.90;77.60;;;;;;5099175;28;19970;-78
2022/06/28 14:29:45;;;;;;;;;;;26.20;78.40;;;;;;5115107;28;19923;-78
2022/06/28 14:32:11;;;;;;;;;;;26.80;78.60;;;;;;5114702;28;20014;-79
2022/06/28 14:34:37;;;;;;;;;;;26.60;72.90;;;;;;5114820;28;19924;-78